SUMU/MVD METAR and TAF weather

Enter ICAO airport designator
Station Type Date Time Source
SUMU METAR 2022/09/26 09:00 UTC NOAA

SUMU 260900Z 12002KT 9999 BKN015 OVC030 14/11 Q1014 NOSIG


Station Type Date Time Source
SUMU Decoded METAR 2022/09/26 09:00 UTC NOAA

Carrasco, Uruguay (SUMU) 34-50S 056-00W 32M
Sep 26, 2022 - 05:00 AM EDT / 2022.09.26 0900 UTC
Wind: from the ESE (120 degrees) at 2 MPH (2 KT):0
Visibility: greater than 7 mile(s):0
Sky conditions: overcast
Temperature: 57 F (14 C)
Dew Point: 51 F (11 C)
Relative Humidity: 82%
Pressure (altimeter): 29.94 in. Hg (1014 hPa)
ob: SUMU 260900Z 12002KT 9999 BKN015 OVC030 14/11 Q1014 NOSIG
cycle: 9

Station Type Date Time Source
SUMU TAF 2022/09/26 06:30 UTC NOAA

TAF SUMU 260530Z 2606/2706 07005KT 9999 SCT020 TX19/2618Z TN12/2610Z
TEMPO 2606/2615 3000 RA BR BKN008 BKN070 PROB30
TEMPO 2608/2612 TS BKN006 FEW040CB BKN070

Example: see airport list